sensor_id;sensor_type;location;lat;lon;timestamp;P1;durP1;ratioP1;P2;durP2;ratioP2
21878;SDS011;27908;42.708;23.278;2023-02-22T00:00:19;11.13;;;4.40;;
21878;SDS011;27908;42.708;23.278;2023-02-22T00:03:04;14.38;;;4.43;;
21878;SDS011;27908;42.708;23.278;2023-02-22T00:05:31;11.35;;;4.15;;
21878;SDS011;27908;42.708;23.278;2023-02-22T00:07:57;12.65;;;4.65;;
21878;SDS011;27908;42.708;23.278;2023-02-22T00:10:25;10.70;;;4.40;;
21878;SDS011;27908;42.708;23.278;2023-02-22T00:12:51;11.60;;;4.35;;
21878;SDS011;27908;42.708;23.278;2023-02-22T00:15:19;12.73;;;4.75;;
21878;SDS011;27908;42.708;23.278;2023-02-22T00:17:46;10.90;;;4.30;;
21878;SDS011;27908;42.708;23.278;2023-02-22T00:20:12;11.17;;;4.40;;
21878;SDS011;27908;42.708;23.278;2023-02-22T00:22:42;11.48;;;4.28;;
21878;SDS011;27908;42.708;23.278;2023-02-22T00:25:08;9.82;;;4.20;;
21878;SDS011;27908;42.708;23.278;2023-02-22T00:27:34;10.03;;;4.30;;
21878;SDS011;27908;42.708;23.278;2023-02-22T00:29:59;12.95;;;4.60;;
21878;SDS011;27908;42.708;23.278;2023-02-22T00:32:25;13.17;;;4.50;;
21878;SDS011;27908;42.708;23.278;2023-02-22T00:34:51;11.52;;;4.40;;
21878;SDS011;27908;42.708;23.278;2023-02-22T00:37:18;9.83;;;3.67;;
21878;SDS011;27908;42.708;23.278;2023-02-22T00:39:47;12.55;;;4.28;;
21878;SDS011;27908;42.708;23.278;2023-02-22T00:42:14;11.32;;;4.10;;
21878;SDS011;27908;42.708;23.278;2023-02-22T00:44:41;14.25;;;5.20;;
21878;SDS011;27908;42.708;23.278;2023-02-22T00:47:06;12.90;;;5.57;;
21878;SDS011;27908;42.708;23.278;2023-02-22T00:49:32;15.50;;;6.28;;
21878;SDS011;27908;42.708;23.278;2023-02-22T00:51:58;16.52;;;6.18;;
21878;SDS011;27908;42.708;23.278;2023-02-22T00:54:24;17.52;;;6.28;;
21878;SDS011;27908;42.708;23.278;2023-02-22T00:56:50;15.20;;;7.53;;
21878;SDS011;27908;42.708;23.278;2023-02-22T00:59:15;12.40;;;5.10;;
21878;SDS011;27908;42.708;23.278;2023-02-22T01:01:41;17.47;;;7.13;;
21878;SDS011;27908;42.708;23.278;2023-02-22T01:04:07;16.08;;;6.53;;
21878;SDS011;27908;42.708;23.278;2023-02-22T01:06:33;15.38;;;6.10;;
21878;SDS011;27908;42.708;23.278;2023-02-22T01:08:59;11.70;;;5.30;;
21878;SDS011;27908;42.708;23.278;2023-02-22T01:11:26;16.63;;;6.57;;
21878;SDS011;27908;42.708;23.278;2023-02-22T01:13:52;13.10;;;5.53;;
21878;SDS011;27908;42.708;23.278;2023-02-22T01:16:18;12.63;;;4.82;;
21878;SDS011;27908;42.708;23.278;2023-02-22T01:18:44;14.23;;;6.32;;
21878;SDS011;27908;42.708;23.278;2023-02-22T01:21:10;12.60;;;5.13;;
21878;SDS011;27908;42.708;23.278;2023-02-22T01:23:35;12.03;;;4.80;;
21878;SDS011;27908;42.708;23.278;2023-02-22T01:26:01;11.17;;;4.40;;
21878;SDS011;27908;42.708;23.278;2023-02-22T01:28:29;13.27;;;3.60;;
21878;SDS011;27908;42.708;23.278;2023-02-22T01:30:56;14.02;;;4.28;;
21878;SDS011;27908;42.708;23.278;2023-02-22T01:33:22;11.43;;;4.93;;
21878;SDS011;27908;42.708;23.278;2023-02-22T01:35:48;13.17;;;4.50;;
21878;SDS011;27908;42.708;23.278;2023-02-22T01:38:15;10.25;;;4.15;;
21878;SDS011;27908;42.708;23.278;2023-02-22T01:40:41;10.77;;;3.80;;
21878;SDS011;27908;42.708;23.278;2023-02-22T01:43:29;10.75;;;4.13;;
21878;SDS011;27908;42.708;23.278;2023-02-22T01:51:01;9.75;;;3.95;;
21878;SDS011;27908;42.708;23.278;2023-02-22T01:53:39;9.05;;;3.78;;
21878;SDS011;27908;42.708;23.278;2023-02-22T01:56:08;10.95;;;3.90;;
21878;SDS011;27908;42.708;23.278;2023-02-22T01:58:34;9.67;;;3.50;;
21878;SDS011;27908;42.708;23.278;2023-02-22T02:01:04;10.35;;;3.80;;
21878;SDS011;27908;42.708;23.278;2023-02-22T02:03:31;9.98;;;3.60;;
21878;SDS011;27908;42.708;23.278;2023-02-22T02:06:00;8.63;;;3.35;;
21878;SDS011;27908;42.708;23.278;2023-02-22T02:11:21;9.07;;;3.60;;
21878;SDS011;27908;42.708;23.278;2023-02-22T02:13:50;8.25;;;3.42;;
21878;SDS011;27908;42.708;23.278;2023-02-22T02:16:19;9.77;;;3.67;;
21878;SDS011;27908;42.708;23.278;2023-02-22T02:18:46;9.25;;;3.33;;
21878;SDS011;27908;42.708;23.278;2023-02-22T02:34:22;8.65;;;3.60;;
21878;SDS011;27908;42.708;23.278;2023-02-22T02:39:35;9.52;;;3.85;;
21878;SDS011;27908;42.708;23.278;2023-02-22T02:42:10;10.27;;;3.90;;
21878;SDS011;27908;42.708;23.278;2023-02-22T02:47:15;10.18;;;3.75;;
21878;SDS011;27908;42.708;23.278;2023-02-22T02:49:56;10.33;;;3.73;;
21878;SDS011;27908;42.708;23.278;2023-02-22T02:52:26;11.55;;;3.72;;
21878;SDS011;27908;42.708;23.278;2023-02-22T02:54:54;10.45;;;4.18;;
21878;SDS011;27908;42.708;23.278;2023-02-22T02:57:20;9.85;;;3.60;;
21878;SDS011;27908;42.708;23.278;2023-02-22T02:59:46;10.37;;;3.60;;
21878;SDS011;27908;42.708;23.278;2023-02-22T03:10:24;8.70;;;3.30;;
21878;SDS011;27908;42.708;23.278;2023-02-22T03:24:16;18.40;;;6.38;;
21878;SDS011;27908;42.708;23.278;2023-02-22T03:26:57;11.27;;;4.60;;
21878;SDS011;27908;42.708;23.278;2023-02-22T03:29:33;16.65;;;6.47;;
21878;SDS011;27908;42.708;23.278;2023-02-22T03:32:04;18.35;;;8.70;;
21878;SDS011;27908;42.708;23.278;2023-02-22T03:34:35;17.20;;;7.68;;
21878;SDS011;27908;42.708;23.278;2023-02-22T03:37:15;13.50;;;5.70;;
21878;SDS011;27908;42.708;23.278;2023-02-22T03:39:43;16.27;;;7.40;;
21878;SDS011;27908;42.708;23.278;2023-02-22T03:42:16;19.33;;;6.57;;
21878;SDS011;27908;42.708;23.278;2023-02-22T03:44:44;16.50;;;6.60;;
21878;SDS011;27908;42.708;23.278;2023-02-22T03:47:15;20.30;;;7.78;;
21878;SDS011;27908;42.708;23.278;2023-02-22T03:49:50;13.65;;;6.57;;
21878;SDS011;27908;42.708;23.278;2023-02-22T03:52:20;15.60;;;5.87;;
21878;SDS011;27908;42.708;23.278;2023-02-22T03:54:49;12.75;;;5.40;;
21878;SDS011;27908;42.708;23.278;2023-02-22T03:57:24;12.95;;;4.93;;
21878;SDS011;27908;42.708;23.278;2023-02-22T03:59:52;11.50;;;3.83;;
21878;SDS011;27908;42.708;23.278;2023-02-22T04:02:18;13.10;;;3.43;;
21878;SDS011;27908;42.708;23.278;2023-02-22T04:04:44;8.15;;;3.65;;
21878;SDS011;27908;42.708;23.278;2023-02-22T04:07:11;9.00;;;3.17;;
21878;SDS011;27908;42.708;23.278;2023-02-22T04:09:36;9.47;;;3.37;;
21878;SDS011;27908;42.708;23.278;2023-02-22T04:12:01;7.67;;;3.20;;
21878;SDS011;27908;42.708;23.278;2023-02-22T04:14:28;8.98;;;2.97;;
21878;SDS011;27908;42.708;23.278;2023-02-22T04:16:54;8.05;;;3.30;;
21878;SDS011;27908;42.708;23.278;2023-02-22T04:19:19;8.77;;;3.47;;
21878;SDS011;27908;42.708;23.278;2023-02-22T04:21:45;8.47;;;2.97;;
21878;SDS011;27908;42.708;23.278;2023-02-22T04:24:10;9.82;;;3.38;;
21878;SDS011;27908;42.708;23.278;2023-02-22T04:26:36;9.50;;;3.43;;
21878;SDS011;27908;42.708;23.278;2023-02-22T04:29:01;12.37;;;3.83;;
21878;SDS011;27908;42.708;23.278;2023-02-22T04:31:28;11.00;;;4.20;;
21878;SDS011;27908;42.708;23.278;2023-02-22T04:33:54;18.13;;;5.75;;
21878;SDS011;27908;42.708;23.278;2023-02-22T04:36:19;12.27;;;4.77;;
21878;SDS011;27908;42.708;23.278;2023-02-22T04:38:45;12.67;;;5.07;;
21878;SDS011;27908;42.708;23.278;2023-02-22T04:41:11;14.70;;;6.03;;
21878;SDS011;27908;42.708;23.278;2023-02-22T04:43:37;13.47;;;4.57;;
21878;SDS011;27908;42.708;23.278;2023-02-22T04:46:02;15.43;;;5.85;;
21878;SDS011;27908;42.708;23.278;2023-02-22T04:48:28;14.00;;;5.53;;
21878;SDS011;27908;42.708;23.278;2023-02-22T04:50:54;17.30;;;7.13;;
21878;SDS011;27908;42.708;23.278;2023-02-22T04:53:20;17.50;;;6.37;;
21878;SDS011;27908;42.708;23.278;2023-02-22T04:55:46;17.63;;;7.60;;
21878;SDS011;27908;42.708;23.278;2023-02-22T04:58:11;18.23;;;6.90;;
21878;SDS011;27908;42.708;23.278;2023-02-22T05:00:37;14.57;;;5.63;;
21878;SDS011;27908;42.708;23.278;2023-02-22T05:03:02;19.77;;;7.87;;
21878;SDS011;27908;42.708;23.278;2023-02-22T05:05:28;23.07;;;8.43;;
21878;SDS011;27908;42.708;23.278;2023-02-22T05:07:53;21.40;;;8.35;;
21878;SDS011;27908;42.708;23.278;2023-02-22T05:10:19;23.87;;;10.00;;
21878;SDS011;27908;42.708;23.278;2023-02-22T05:12:44;21.40;;;7.90;;
21878;SDS011;27908;42.708;23.278;2023-02-22T05:15:10;19.58;;;7.35;;
21878;SDS011;27908;42.708;23.278;2023-02-22T05:17:40;21.17;;;8.20;;
21878;SDS011;27908;42.708;23.278;2023-02-22T05:20:06;24.13;;;8.82;;
21878;SDS011;27908;42.708;23.278;2023-02-22T05:22:32;24.03;;;9.33;;
21878;SDS011;27908;42.708;23.278;2023-02-22T05:25:00;24.63;;;11.02;;
21878;SDS011;27908;42.708;23.278;2023-02-22T05:27:25;23.13;;;8.60;;
21878;SDS011;27908;42.708;23.278;2023-02-22T05:29:51;24.10;;;9.73;;
21878;SDS011;27908;42.708;23.278;2023-02-22T05:32:16;29.63;;;11.77;;
21878;SDS011;27908;42.708;23.278;2023-02-22T05:34:41;26.43;;;10.60;;
21878;SDS011;27908;42.708;23.278;2023-02-22T05:37:07;29.23;;;9.47;;
21878;SDS011;27908;42.708;23.278;2023-02-22T05:39:32;23.30;;;9.53;;
21878;SDS011;27908;42.708;23.278;2023-02-22T05:41:58;24.90;;;8.57;;
21878;SDS011;27908;42.708;23.278;2023-02-22T05:44:23;29.87;;;9.00;;
21878;SDS011;27908;42.708;23.278;2023-02-22T05:46:49;23.80;;;8.93;;
21878;SDS011;27908;42.708;23.278;2023-02-22T05:49:14;20.45;;;8.07;;
21878;SDS011;27908;42.708;23.278;2023-02-22T05:51:40;20.13;;;8.87;;
21878;SDS011;27908;42.708;23.278;2023-02-22T05:54:05;19.13;;;8.57;;
21878;SDS011;27908;42.708;23.278;2023-02-22T05:56:31;20.85;;;8.77;;
21878;SDS011;27908;42.708;23.278;2023-02-22T05:58:56;21.20;;;8.20;;
21878;SDS011;27908;42.708;23.278;2023-02-22T06:01:22;22.97;;;7.83;;
21878;SDS011;27908;42.708;23.278;2023-02-22T06:03:48;28.88;;;9.00;;
21878;SDS011;27908;42.708;23.278;2023-02-22T06:06:15;19.02;;;7.72;;
21878;SDS011;27908;42.708;23.278;2023-02-22T06:08:41;17.95;;;7.50;;
21878;SDS011;27908;42.708;23.278;2023-02-22T06:11:07;22.03;;;7.73;;
21878;SDS011;27908;42.708;23.278;2023-02-22T06:13:35;22.88;;;8.27;;
21878;SDS011;27908;42.708;23.278;2023-02-22T06:16:01;26.65;;;8.27;;
21878;SDS011;27908;42.708;23.278;2023-02-22T06:18:27;24.83;;;8.10;;
21878;SDS011;27908;42.708;23.278;2023-02-22T06:20:55;18.33;;;7.63;;
21878;SDS011;27908;42.708;23.278;2023-02-22T06:23:20;16.23;;;6.45;;
21878;SDS011;27908;42.708;23.278;2023-02-22T06:25:46;14.67;;;5.87;;
21878;SDS011;27908;42.708;23.278;2023-02-22T06:28:12;16.50;;;6.43;;
21878;SDS011;27908;42.708;23.278;2023-02-22T06:30:38;14.57;;;6.70;;
21878;SDS011;27908;42.708;23.278;2023-02-22T06:33:04;14.10;;;6.30;;
21878;SDS011;27908;42.708;23.278;2023-02-22T06:35:30;13.23;;;5.60;;
21878;SDS011;27908;42.708;23.278;2023-02-22T06:37:55;13.00;;;5.47;;
21878;SDS011;27908;42.708;23.278;2023-02-22T06:40:21;16.13;;;6.00;;
21878;SDS011;27908;42.708;23.278;2023-02-22T06:42:47;14.50;;;5.83;;
21878;SDS011;27908;42.708;23.278;2023-02-22T06:45:13;14.90;;;5.78;;
21878;SDS011;27908;42.708;23.278;2023-02-22T06:47:41;13.90;;;5.68;;
21878;SDS011;27908;42.708;23.278;2023-02-22T06:50:09;15.27;;;5.83;;
21878;SDS011;27908;42.708;23.278;2023-02-22T06:52:43;17.70;;;6.78;;
21878;SDS011;27908;42.708;23.278;2023-02-22T06:55:08;21.23;;;9.13;;
21878;SDS011;27908;42.708;23.278;2023-02-22T06:57:34;25.10;;;8.75;;
21878;SDS011;27908;42.708;23.278;2023-02-22T06:59:59;32.93;;;11.93;;
21878;SDS011;27908;42.708;23.278;2023-02-22T07:02:25;31.53;;;13.30;;
21878;SDS011;27908;42.708;23.278;2023-02-22T07:04:50;27.10;;;10.37;;
21878;SDS011;27908;42.708;23.278;2023-02-22T07:07:15;23.40;;;9.23;;
21878;SDS011;27908;42.708;23.278;2023-02-22T07:09:41;24.83;;;9.60;;
21878;SDS011;27908;42.708;23.278;2023-02-22T07:12:10;22.13;;;8.17;;
21878;SDS011;27908;42.708;23.278;2023-02-22T07:14:35;20.33;;;8.02;;
21878;SDS011;27908;42.708;23.278;2023-02-22T07:17:01;22.60;;;8.83;;
21878;SDS011;27908;42.708;23.278;2023-02-22T07:19:27;28.05;;;9.90;;
21878;SDS011;27908;42.708;23.278;2023-02-22T07:21:52;22.33;;;9.27;;
21878;SDS011;27908;42.708;23.278;2023-02-22T07:24:23;22.73;;;11.15;;
21878;SDS011;27908;42.708;23.278;2023-02-22T07:26:49;23.47;;;9.47;;
21878;SDS011;27908;42.708;23.278;2023-02-22T07:29:14;19.60;;;8.10;;
21878;SDS011;27908;42.708;23.278;2023-02-22T07:31:39;19.27;;;7.73;;
21878;SDS011;27908;42.708;23.278;2023-02-22T07:34:05;20.10;;;8.73;;
21878;SDS011;27908;42.708;23.278;2023-02-22T07:36:30;19.57;;;8.30;;
21878;SDS011;27908;42.708;23.278;2023-02-22T07:38:56;22.67;;;8.70;;
21878;SDS011;27908;42.708;23.278;2023-02-22T07:41:21;17.88;;;7.57;;
21878;SDS011;27908;42.708;23.278;2023-02-22T07:43:47;20.40;;;8.07;;
21878;SDS011;27908;42.708;23.278;2023-02-22T07:46:12;20.40;;;8.50;;
21878;SDS011;27908;42.708;23.278;2023-02-22T07:48:38;20.80;;;7.97;;
21878;SDS011;27908;42.708;23.278;2023-02-22T07:51:03;19.20;;;7.73;;
21878;SDS011;27908;42.708;23.278;2023-02-22T07:53:30;16.30;;;6.95;;
21878;SDS011;27908;42.708;23.278;2023-02-22T07:55:58;21.67;;;8.48;;
21878;SDS011;27908;42.708;23.278;2023-02-22T07:58:25;19.73;;;7.67;;
21878;SDS011;27908;42.708;23.278;2023-02-22T08:00:52;16.92;;;7.10;;
21878;SDS011;27908;42.708;23.278;2023-02-22T08:03:19;21.33;;;7.55;;
21878;SDS011;27908;42.708;23.278;2023-02-22T08:05:47;17.58;;;7.78;;
21878;SDS011;27908;42.708;23.278;2023-02-22T08:08:14;16.27;;;6.75;;
21878;SDS011;27908;42.708;23.278;2023-02-22T08:10:40;20.17;;;6.57;;
21878;SDS011;27908;42.708;23.278;2023-02-22T08:13:06;15.73;;;6.13;;
21878;SDS011;27908;42.708;23.278;2023-02-22T08:15:35;17.43;;;6.37;;
21878;SDS011;27908;42.708;23.278;2023-02-22T08:18:03;18.13;;;7.10;;
21878;SDS011;27908;42.708;23.278;2023-02-22T08:20:33;19.35;;;6.93;;
21878;SDS011;27908;42.708;23.278;2023-02-22T08:22:58;19.63;;;7.33;;
21878;SDS011;27908;42.708;23.278;2023-02-22T08:25:24;18.08;;;7.15;;
21878;SDS011;27908;42.708;23.278;2023-02-22T08:27:52;22.80;;;10.13;;
21878;SDS011;27908;42.708;23.278;2023-02-22T08:30:22;25.85;;;10.10;;
21878;SDS011;27908;42.708;23.278;2023-02-22T08:32:48;24.48;;;10.50;;
21878;SDS011;27908;42.708;23.278;2023-02-22T08:35:16;24.30;;;10.50;;
21878;SDS011;27908;42.708;23.278;2023-02-22T08:37:46;24.65;;;10.35;;
21878;SDS011;27908;42.708;23.278;2023-02-22T08:40:14;23.97;;;9.20;;
21878;SDS011;27908;42.708;23.278;2023-02-22T08:42:42;17.02;;;7.40;;
21878;SDS011;27908;42.708;23.278;2023-02-22T08:45:08;19.70;;;7.55;;
21878;SDS011;27908;42.708;23.278;2023-02-22T08:47:34;16.35;;;7.93;;
21878;SDS011;27908;42.708;23.278;2023-02-22T08:50:00;15.17;;;7.20;;
21878;SDS011;27908;42.708;23.278;2023-02-22T08:52:26;18.08;;;6.30;;
21878;SDS011;27908;42.708;23.278;2023-02-22T08:54:51;14.80;;;6.27;;
21878;SDS011;27908;42.708;23.278;2023-02-22T08:57:17;12.10;;;5.40;;
21878;SDS011;27908;42.708;23.278;2023-02-22T08:59:42;15.43;;;5.60;;
21878;SDS011;27908;42.708;23.278;2023-02-22T09:02:12;14.73;;;5.80;;
21878;SDS011;27908;42.708;23.278;2023-02-22T09:04:40;15.00;;;5.73;;
21878;SDS011;27908;42.708;23.278;2023-02-22T09:07:06;15.13;;;6.95;;
21878;SDS011;27908;42.708;23.278;2023-02-22T09:09:32;19.27;;;6.65;;
21878;SDS011;27908;42.708;23.278;2023-02-22T09:11:58;12.07;;;5.90;;
21878;SDS011;27908;42.708;23.278;2023-02-22T09:14:23;16.20;;;6.10;;
21878;SDS011;27908;42.708;23.278;2023-02-22T09:16:49;14.40;;;5.90;;
21878;SDS011;27908;42.708;23.278;2023-02-22T09:19:14;14.77;;;5.37;;
21878;SDS011;27908;42.708;23.278;2023-02-22T09:21:39;14.03;;;5.07;;
21878;SDS011;27908;42.708;23.278;2023-02-22T09:24:06;14.33;;;4.63;;
21878;SDS011;27908;42.708;23.278;2023-02-22T09:26:35;9.68;;;4.40;;
21878;SDS011;27908;42.708;23.278;2023-02-22T09:29:04;11.80;;;4.53;;
21878;SDS011;27908;42.708;23.278;2023-02-22T09:31:33;9.80;;;4.27;;
21878;SDS011;27908;42.708;23.278;2023-02-22T09:33:59;11.05;;;3.90;;
21878;SDS011;27908;42.708;23.278;2023-02-22T09:36:24;10.40;;;4.00;;
21878;SDS011;27908;42.708;23.278;2023-02-22T09:38:50;9.57;;;4.13;;
21878;SDS011;27908;42.708;23.278;2023-02-22T09:41:19;10.80;;;3.87;;
21878;SDS011;27908;42.708;23.278;2023-02-22T09:46:52;8.77;;;3.75;;
21878;SDS011;27908;42.708;23.278;2023-02-22T09:52:19;10.95;;;3.72;;
21878;SDS011;27908;42.708;23.278;2023-02-22T09:54:53;10.87;;;3.63;;
21878;SDS011;27908;42.708;23.278;2023-02-22T09:57:36;9.07;;;3.67;;
21878;SDS011;27908;42.708;23.278;2023-02-22T10:00:11;9.77;;;3.70;;
21878;SDS011;27908;42.708;23.278;2023-02-22T10:05:51;9.45;;;3.30;;
21878;SDS011;27908;42.708;23.278;2023-02-22T10:08:28;9.10;;;3.43;;
21878;SDS011;27908;42.708;23.278;2023-02-22T10:22:10;9.27;;;3.23;;
21878;SDS011;27908;42.708;23.278;2023-02-22T10:24:53;10.40;;;4.20;;
21878;SDS011;27908;42.708;23.278;2023-02-22T10:27:38;7.97;;;3.70;;
21878;SDS011;27908;42.708;23.278;2023-02-22T10:30:07;13.13;;;3.85;;
21878;SDS011;27908;42.708;23.278;2023-02-22T10:33:03;10.27;;;3.50;;
21878;SDS011;27908;42.708;23.278;2023-02-22T10:35:36;8.77;;;3.20;;
21878;SDS011;27908;42.708;23.278;2023-02-22T10:38:17;8.55;;;3.33;;
21878;SDS011;27908;42.708;23.278;2023-02-22T10:40:57;8.88;;;3.63;;
21878;SDS011;27908;42.708;23.278;2023-02-22T10:43:27;9.43;;;3.20;;
21878;SDS011;27908;42.708;23.278;2023-02-22T10:45:56;9.43;;;3.60;;
21878;SDS011;27908;42.708;23.278;2023-02-22T10:48:27;9.40;;;4.17;;
21878;SDS011;27908;42.708;23.278;2023-02-22T10:50:59;9.57;;;3.78;;
21878;SDS011;27908;42.708;23.278;2023-02-22T10:53:26;10.18;;;4.05;;
21878;SDS011;27908;42.708;23.278;2023-02-22T11:01:18;10.57;;;3.53;;
21878;SDS011;27908;42.708;23.278;2023-02-22T11:06:36;11.95;;;3.53;;
21878;SDS011;27908;42.708;23.278;2023-02-22T11:09:24;10.88;;;3.22;;
21878;SDS011;27908;42.708;23.278;2023-02-22T11:11:49;8.38;;;2.92;;
21878;SDS011;27908;42.708;23.278;2023-02-22T11:14:35;6.90;;;2.70;;
21878;SDS011;27908;42.708;23.278;2023-02-22T11:17:00;12.25;;;3.00;;
21878;SDS011;27908;42.708;23.278;2023-02-22T11:19:31;10.03;;;2.63;;
21878;SDS011;27908;42.708;23.278;2023-02-22T11:22:08;9.65;;;3.67;;
21878;SDS011;27908;42.708;23.278;2023-02-22T11:24:46;7.57;;;2.92;;
21878;SDS011;27908;42.708;23.278;2023-02-22T11:27:41;10.23;;;3.13;;
21878;SDS011;27908;42.708;23.278;2023-02-22T11:32:45;6.63;;;2.30;;
21878;SDS011;27908;42.708;23.278;2023-02-22T11:35:34;6.95;;;2.15;;
21878;SDS011;27908;42.708;23.278;2023-02-22T11:41:04;6.13;;;2.25;;
21878;SDS011;27908;42.708;23.278;2023-02-22T11:43:30;6.85;;;2.75;;
21878;SDS011;27908;42.708;23.278;2023-02-22T11:45:56;6.13;;;2.47;;
21878;SDS011;27908;42.708;23.278;2023-02-22T11:48:28;7.90;;;2.70;;
21878;SDS011;27908;42.708;23.278;2023-02-22T11:51:09;6.60;;;2.45;;
21878;SDS011;27908;42.708;23.278;2023-02-22T12:01:57;6.72;;;2.33;;
21878;SDS011;27908;42.708;23.278;2023-02-22T12:21:22;6.87;;;2.30;;
21878;SDS011;27908;42.708;23.278;2023-02-22T12:23:59;6.13;;;2.20;;
21878;SDS011;27908;42.708;23.278;2023-02-22T12:26:32;7.80;;;2.42;;
21878;SDS011;27908;42.708;23.278;2023-02-22T12:31:56;6.15;;;2.00;;
21878;SDS011;27908;42.708;23.278;2023-02-22T12:39:48;9.00;;;2.60;;
21878;SDS011;27908;42.708;23.278;2023-02-22T12:42:40;7.05;;;1.65;;
21878;SDS011;27908;42.708;23.278;2023-02-22T12:45:30;7.75;;;2.30;;
21878;SDS011;27908;42.708;23.278;2023-02-22T12:48:04;8.50;;;2.47;;
21878;SDS011;27908;42.708;23.278;2023-02-22T12:50:31;7.22;;;2.30;;
21878;SDS011;27908;42.708;23.278;2023-02-22T12:58:59;7.40;;;2.80;;
21878;SDS011;27908;42.708;23.278;2023-02-22T13:01:33;8.07;;;2.50;;
21878;SDS011;27908;42.708;23.278;2023-02-22T13:04:06;7.22;;;2.35;;
21878;SDS011;27908;42.708;23.278;2023-02-22T13:12:29;7.67;;;2.50;;
21878;SDS011;27908;42.708;23.278;2023-02-22T13:15:23;6.35;;;2.08;;
21878;SDS011;27908;42.708;23.278;2023-02-22T13:23:22;6.50;;;2.63;;
21878;SDS011;27908;42.708;23.278;2023-02-22T13:29:11;7.35;;;2.78;;
21878;SDS011;27908;42.708;23.278;2023-02-22T13:48:20;8.50;;;2.90;;
21878;SDS011;27908;42.708;23.278;2023-02-22T13:51:10;7.78;;;2.95;;
21878;SDS011;27908;42.708;23.278;2023-02-22T13:53:53;7.75;;;3.35;;
21878;SDS011;27908;42.708;23.278;2023-02-22T13:56:24;8.45;;;3.33;;
21878;SDS011;27908;42.708;23.278;2023-02-22T13:58:52;9.02;;;3.65;;
21878;SDS011;27908;42.708;23.278;2023-02-22T14:17:33;6.88;;;3.00;;
21878;SDS011;27908;42.708;23.278;2023-02-22T14:20:00;7.65;;;3.10;;
21878;SDS011;27908;42.708;23.278;2023-02-22T14:22:48;7.78;;;2.38;;
21878;SDS011;27908;42.708;23.278;2023-02-22T14:31:17;8.68;;;3.90;;
21878;SDS011;27908;42.708;23.278;2023-02-22T14:33:52;8.48;;;3.72;;
21878;SDS011;27908;42.708;23.278;2023-02-22T14:36:20;12.60;;;4.78;;
21878;SDS011;27908;42.708;23.278;2023-02-22T14:38:47;8.40;;;3.65;;
21878;SDS011;27908;42.708;23.278;2023-02-22T14:41:18;9.47;;;3.03;;
21878;SDS011;27908;42.708;23.278;2023-02-22T14:43:46;7.53;;;2.72;;
21878;SDS011;27908;42.708;23.278;2023-02-22T14:46:21;7.13;;;3.05;;
21878;SDS011;27908;42.708;23.278;2023-02-22T14:48:53;8.65;;;3.03;;
21878;SDS011;27908;42.708;23.278;2023-02-22T14:51:25;8.32;;;3.20;;
21878;SDS011;27908;42.708;23.278;2023-02-22T14:56:45;8.65;;;3.50;;
21878;SDS011;27908;42.708;23.278;2023-02-22T14:59:17;9.15;;;3.63;;
21878;SDS011;27908;42.708;23.278;2023-02-22T15:02:11;7.07;;;3.15;;
21878;SDS011;27908;42.708;23.278;2023-02-22T15:04:37;8.48;;;3.70;;
21878;SDS011;27908;42.708;23.278;2023-02-22T15:07:22;8.50;;;4.17;;
21878;SDS011;27908;42.708;23.278;2023-02-22T15:13:19;10.63;;;4.45;;
21878;SDS011;27908;42.708;23.278;2023-02-22T15:15:47;9.25;;;4.22;;
21878;SDS011;27908;42.708;23.278;2023-02-22T15:21:11;10.77;;;3.80;;
21878;SDS011;27908;42.708;23.278;2023-02-22T15:23:45;9.70;;;4.40;;
21878;SDS011;27908;42.708;23.278;2023-02-22T15:28:54;10.57;;;4.63;;
21878;SDS011;27908;42.708;23.278;2023-02-22T15:34:07;9.23;;;4.10;;
21878;SDS011;27908;42.708;23.278;2023-02-22T15:36:44;9.27;;;4.30;;
21878;SDS011;27908;42.708;23.278;2023-02-22T15:42:08;10.88;;;4.25;;
21878;SDS011;27908;42.708;23.278;2023-02-22T15:44:43;8.15;;;4.10;;
21878;SDS011;27908;42.708;23.278;2023-02-22T15:47:19;9.63;;;4.47;;
21878;SDS011;27908;42.708;23.278;2023-02-22T15:52:39;8.82;;;4.95;;
21878;SDS011;27908;42.708;23.278;2023-02-22T15:55:11;14.45;;;4.43;;
21878;SDS011;27908;42.708;23.278;2023-02-22T15:57:40;12.15;;;5.50;;
21878;SDS011;27908;42.708;23.278;2023-02-22T16:00:06;11.40;;;5.17;;
21878;SDS011;27908;42.708;23.278;2023-02-22T16:02:44;11.45;;;5.32;;
21878;SDS011;27908;42.708;23.278;2023-02-22T16:05:11;16.25;;;4.82;;
21878;SDS011;27908;42.708;23.278;2023-02-22T16:07:43;8.47;;;4.30;;
21878;SDS011;27908;42.708;23.278;2023-02-22T16:13:03;13.43;;;5.65;;
21878;SDS011;27908;42.708;23.278;2023-02-22T16:15:31;11.85;;;5.43;;
21878;SDS011;27908;42.708;23.278;2023-02-22T16:18:15;15.63;;;6.45;;
21878;SDS011;27908;42.708;23.278;2023-02-22T16:20:42;17.80;;;6.40;;
21878;SDS011;27908;42.708;23.278;2023-02-22T16:23:24;12.80;;;6.43;;
21878;SDS011;27908;42.708;23.278;2023-02-22T16:26:00;15.32;;;7.95;;
21878;SDS011;27908;42.708;23.278;2023-02-22T16:28:29;13.85;;;5.53;;
21878;SDS011;27908;42.708;23.278;2023-02-22T16:30:58;12.23;;;5.37;;
21878;SDS011;27908;42.708;23.278;2023-02-22T16:33:24;17.00;;;5.60;;
21878;SDS011;27908;42.708;23.278;2023-02-22T16:35:53;12.68;;;5.82;;
21878;SDS011;27908;42.708;23.278;2023-02-22T16:38:21;12.25;;;5.20;;
21878;SDS011;27908;42.708;23.278;2023-02-22T16:40:50;14.07;;;5.70;;
21878;SDS011;27908;42.708;23.278;2023-02-22T16:43:21;17.73;;;7.88;;
21878;SDS011;27908;42.708;23.278;2023-02-22T16:45:49;15.25;;;6.75;;
21878;SDS011;27908;42.708;23.278;2023-02-22T16:50:54;22.20;;;10.70;;
21878;SDS011;27908;42.708;23.278;2023-02-22T16:53:24;54.40;;;26.87;;
21878;SDS011;27908;42.708;23.278;2023-02-22T16:55:53;16.52;;;7.88;;
21878;SDS011;27908;42.708;23.278;2023-02-22T16:58:24;17.15;;;6.18;;
21878;SDS011;27908;42.708;23.278;2023-02-22T17:00:54;32.20;;;14.93;;
21878;SDS011;27908;42.708;23.278;2023-02-22T17:03:21;14.32;;;7.22;;
21878;SDS011;27908;42.708;23.278;2023-02-22T17:05:48;16.67;;;7.30;;
21878;SDS011;27908;42.708;23.278;2023-02-22T17:08:13;27.50;;;10.88;;
21878;SDS011;27908;42.708;23.278;2023-02-22T17:10:40;13.15;;;6.75;;
21878;SDS011;27908;42.708;23.278;2023-02-22T17:13:06;14.50;;;7.40;;
21878;SDS011;27908;42.708;23.278;2023-02-22T17:15:32;14.98;;;6.40;;
21878;SDS011;27908;42.708;23.278;2023-02-22T17:18:00;15.90;;;6.68;;
21878;SDS011;27908;42.708;23.278;2023-02-22T17:20:28;13.77;;;6.35;;
21878;SDS011;27908;42.708;23.278;2023-02-22T17:22:58;23.37;;;9.37;;
21878;SDS011;27908;42.708;23.278;2023-02-22T17:25:32;16.58;;;7.80;;
21878;SDS011;27908;42.708;23.278;2023-02-22T17:28:01;15.93;;;7.82;;
21878;SDS011;27908;42.708;23.278;2023-02-22T17:30:26;14.97;;;7.87;;
21878;SDS011;27908;42.708;23.278;2023-02-22T17:32:52;17.35;;;7.00;;
21878;SDS011;27908;42.708;23.278;2023-02-22T17:35:20;18.63;;;8.18;;
21878;SDS011;27908;42.708;23.278;2023-02-22T17:37:51;18.43;;;8.20;;
21878;SDS011;27908;42.708;23.278;2023-02-22T17:40:16;22.55;;;10.40;;
21878;SDS011;27908;42.708;23.278;2023-02-22T17:42:42;16.10;;;8.23;;
21878;SDS011;27908;42.708;23.278;2023-02-22T17:45:09;21.23;;;9.25;;
21878;SDS011;27908;42.708;23.278;2023-02-22T17:47:38;19.52;;;8.88;;
21878;SDS011;27908;42.708;23.278;2023-02-22T17:50:05;25.63;;;11.50;;
21878;SDS011;27908;42.708;23.278;2023-02-22T17:52:31;31.95;;;14.10;;